createdAt,value
2022-10-06T00:00:31.516Z,100104.94
2022-10-06T00:02:57.925Z,100107.63
2022-10-06T00:05:24.451Z,100100.59
2022-10-06T00:07:50.843Z,100104.28
2022-10-06T00:10:17.727Z,100115.72
2022-10-06T00:12:47.624Z,100117.81
2022-10-06T00:15:16.607Z,100120.09
2022-10-06T00:17:42.993Z,100120.91
2022-10-06T00:20:10.817Z,100129.00
2022-10-06T00:22:42.542Z,100126.69
2022-10-06T00:25:11.931Z,100137.72
2022-10-06T00:27:42.749Z,100133.78
2022-10-06T00:30:12.116Z,100146.00
2022-10-06T00:32:39.436Z,100144.34
2022-10-06T00:35:07.827Z,100141.63
2022-10-06T00:37:38.073Z,100141.47
2022-10-06T00:40:09.637Z,100138.13
2022-10-06T00:42:51.135Z,100158.09
2022-10-06T00:45:20.815Z,100150.56
2022-10-06T00:47:47.421Z,100151.59
2022-10-06T00:50:14.994Z,100149.09
2022-10-06T00:52:41.876Z,100150.94
2022-10-06T00:55:11.179Z,100147.81
2022-10-06T00:57:39.424Z,100158.63
2022-10-06T01:00:07.071Z,100156.97
2022-10-06T01:02:42.565Z,100161.56
2022-10-06T01:05:15.890Z,100166.53
2022-10-06T01:07:42.279Z,100184.13
2022-10-06T01:10:09.276Z,100187.63
2022-10-06T01:12:35.848Z,100185.97
2022-10-06T01:15:02.422Z,100194.88
2022-10-06T01:17:44.057Z,100202.63
2022-10-06T01:20:12.612Z,100188.47
2022-10-06T01:22:43.468Z,100201.34
2022-10-06T01:25:13.264Z,100197.75
2022-10-06T01:27:42.768Z,100198.41
2022-10-06T01:30:13.430Z,100205.84
2022-10-06T01:32:40.179Z,100225.75
2022-10-06T01:35:08.060Z,100219.13
2022-10-06T01:37:34.728Z,100209.19
2022-10-06T01:40:01.203Z,100197.13
2022-10-06T01:42:31.701Z,100205.66
2022-10-06T01:44:58.186Z,100206.69
2022-10-06T01:47:24.562Z,100209.38
2022-10-06T01:49:51.004Z,100211.25
2022-10-06T01:52:17.882Z,100228.44
2022-10-06T01:54:44.243Z,100224.72
2022-10-06T01:57:10.716Z,100223.88
2022-10-06T01:59:37.343Z,100224.06
2022-10-06T02:02:04.702Z,100231.97
2022-10-06T02:04:31.231Z,100231.97
2022-10-06T02:06:57.658Z,100234.66
2022-10-06T02:09:24.090Z,100237.75
2022-10-06T02:11:50.743Z,100238.59
2022-10-06T02:14:18.069Z,100240.22
2022-10-06T02:16:47.806Z,100245.44
2022-10-06T02:19:14.195Z,100247.88
2022-10-06T02:21:40.575Z,100251.84
2022-10-06T02:24:06.979Z,100255.41
2022-10-06T02:26:33.595Z,100257.63
2022-10-06T02:28:59.983Z,100257.22
2022-10-06T02:31:26.606Z,100251.00
2022-10-06T02:33:53.056Z,100258.44
2022-10-06T02:36:19.499Z,100263.47
2022-10-06T02:38:45.911Z,100265.31
2022-10-06T02:41:12.294Z,100269.88
2022-10-06T02:43:38.743Z,100269.22
2022-10-06T02:46:08.142Z,100282.97
2022-10-06T02:48:35.145Z,100290.41
2022-10-06T02:51:09.495Z,100296.72
2022-10-06T02:53:36.552Z,100294.13
2022-10-06T02:56:12.271Z,100295.66
2022-10-06T02:58:39.912Z,100303.25
2022-10-06T03:01:21.280Z,100310.19
2022-10-06T03:03:48.117Z,100317.09
2022-10-06T03:06:26.751Z,100318.25
2022-10-06T03:08:54.252Z,100328.50
2022-10-06T03:11:23.062Z,100342.84
2022-10-06T03:13:51.410Z,100345.53
2022-10-06T03:16:26.644Z,100357.22
2022-10-06T03:18:54.943Z,100355.25
2022-10-06T03:21:23.810Z,100358.53
2022-10-06T03:23:51.833Z,100368.91
2022-10-06T03:26:20.582Z,100376.19
2022-10-06T03:28:47.212Z,100378.03
2022-10-06T03:31:14.986Z,100380.72
2022-10-06T03:33:41.718Z,100366.16
2022-10-06T03:36:11.898Z,100387.41
2022-10-06T03:38:38.691Z,100399.78
2022-10-06T03:41:08.158Z,100399.59
2022-10-06T03:43:35.141Z,100401.81
2022-10-06T03:46:02.762Z,100406.00
2022-10-06T03:48:31.473Z,100411.38
2022-10-06T03:51:03.091Z,100411.38
2022-10-06T03:53:30.286Z,100415.13
2022-10-06T03:56:13.233Z,100438.06
2022-10-06T03:58:41.998Z,100432.94
2022-10-06T04:01:44.621Z,100428.09
2022-10-06T04:04:12.155Z,100435.38
2022-10-06T04:06:42.174Z,100441.41
2022-10-06T04:09:14.909Z,100450.31
2022-10-06T04:11:43.927Z,100450.53
2022-10-06T04:14:13.743Z,100461.09
2022-10-06T04:16:43.303Z,100467.31
2022-10-06T04:19:12.523Z,100475.59
2022-10-06T04:21:41.846Z,100472.91
2022-10-06T04:24:10.638Z,100484.03
2022-10-06T04:26:40.115Z,100484.69
2022-10-06T04:29:06.806Z,100485.06
2022-10-06T04:31:39.071Z,100485.34
2022-10-06T04:34:06.859Z,100484.25
2022-10-06T04:36:35.402Z,100492.97
2022-10-06T04:39:04.238Z,100503.75
2022-10-06T04:41:33.146Z,100504.75
2022-10-06T04:44:00.784Z,100508.50
2022-10-06T04:46:42.777Z,100518.56
2022-10-06T04:49:18.537Z,100531.88
2022-10-06T04:51:47.216Z,100540.13
2022-10-06T04:54:14.263Z,100546.38
2022-10-06T04:56:40.678Z,100555.63
2022-10-06T04:59:07.055Z,100554.59
2022-10-06T05:01:36.384Z,100560.81
2022-10-06T05:04:04.215Z,100565.38
2022-10-06T05:06:33.764Z,100574.16
2022-10-06T05:09:03.662Z,100564.56
2022-10-06T05:11:31.765Z,100562.88
2022-10-06T05:13:58.958Z,100572.63
2022-10-06T05:16:27.524Z,100576.97
2022-10-06T05:18:54.125Z,100585.28
2022-10-06T05:21:40.175Z,100595.84
2022-10-06T05:24:07.046Z,100600.28
2022-10-06T05:26:35.004Z,100622.16
2022-10-06T05:29:02.500Z,100618.97
2022-10-06T05:31:31.771Z,100621.28
2022-10-06T05:33:59.577Z,100625.03
2022-10-06T05:36:29.616Z,100614.59
2022-10-06T05:38:57.343Z,100618.31
2022-10-06T05:41:28.848Z,100628.72
2022-10-06T05:43:55.279Z,100639.50
2022-10-06T05:46:25.054Z,100647.56
2022-10-06T05:48:56.693Z,100658.19
2022-10-06T05:51:30.379Z,100655.00
2022-10-06T05:53:58.175Z,100664.13
2022-10-06T05:56:29.286Z,100668.28
2022-10-06T05:58:57.513Z,100675.56
2022-10-06T06:01:32.519Z,100666.09
2022-10-06T06:04:04.410Z,100681.09
2022-10-06T06:06:42.422Z,100679.34
2022-10-06T06:09:17.312Z,100690.00
2022-10-06T06:11:46.835Z,100691.72
2022-10-06T06:14:16.096Z,100697.09
2022-10-06T06:16:44.060Z,100703.69
2022-10-06T06:19:12.705Z,100715.13
2022-10-06T06:21:39.661Z,100710.91
2022-10-06T06:24:06.555Z,100712.09
2022-10-06T06:26:36.695Z,100719.00
2022-10-06T06:29:04.313Z,100723.53
2022-10-06T06:31:36.067Z,100725.25
2022-10-06T06:34:04.789Z,100728.09
2022-10-06T06:36:43.387Z,100726.03
2022-10-06T06:39:11.490Z,100741.56
2022-10-06T06:41:45.038Z,100736.34
2022-10-06T06:44:12.096Z,100745.63
2022-10-06T06:46:39.795Z,100762.47
2022-10-06T06:49:06.887Z,100759.75
2022-10-06T06:51:40.272Z,100766.78
2022-10-06T06:54:08.254Z,100772.41
2022-10-06T06:56:38.560Z,100771.19
2022-10-06T06:59:11.743Z,100779.44
2022-10-06T07:01:44.343Z,100781.97
2022-10-06T07:04:12.811Z,100784.66
2022-10-06T07:06:40.642Z,100782.81
2022-10-06T07:09:08.002Z,100786.34
2022-10-06T07:11:40.931Z,100775.56
2022-10-06T07:14:10.050Z,100813.94
2022-10-06T07:16:55.170Z,100812.63
2022-10-06T07:19:57.354Z,100815.97
2022-10-06T07:22:46.934Z,100812.44
2022-10-06T07:25:26.468Z,100811.56
2022-10-06T07:27:53.667Z,100819.03
2022-10-06T07:30:26.385Z,100826.69
2022-10-06T07:32:54.785Z,100833.47
2022-10-06T07:35:22.613Z,100813.34
2022-10-06T07:37:50.406Z,100836.50
2022-10-06T07:40:17.522Z,100826.09
2022-10-06T07:42:51.896Z,100848.28
2022-10-06T07:45:37.153Z,100844.75
2022-10-06T07:48:05.527Z,100852.84
2022-10-06T07:50:32.639Z,100856.22
2022-10-06T07:53:04.951Z,100858.91
2022-10-06T07:55:31.902Z,100860.94
2022-10-06T07:57:58.287Z,100862.44
2022-10-06T08:00:26.611Z,100872.19
2022-10-06T08:02:54.821Z,100867.66
2022-10-06T08:05:21.772Z,100891.06
2022-10-06T08:07:48.390Z,100881.94
2022-10-06T08:10:14.986Z,100880.28
2022-10-06T08:12:41.584Z,100883.16
2022-10-06T08:15:11.273Z,100889.03
2022-10-06T08:17:38.513Z,100879.91
2022-10-06T08:20:07.400Z,100893.22
2022-10-06T08:22:33.922Z,100886.66
2022-10-06T08:25:07.697Z,100902.34
2022-10-06T08:27:35.410Z,100904.16
2022-10-06T08:30:02.839Z,100906.19
2022-10-06T08:32:29.446Z,100910.22
2022-10-06T08:34:56.316Z,100915.63
2022-10-06T08:37:26.802Z,100922.03
2022-10-06T08:39:54.608Z,100932.59
2022-10-06T08:42:30.335Z,100936.16
2022-10-06T08:45:00.381Z,100936.50
2022-10-06T08:47:34.940Z,100936.16
2022-10-06T08:50:04.994Z,100937.88
2022-10-06T08:53:01.142Z,100957.06
2022-10-06T08:55:50.111Z,100959.41
2022-10-06T08:58:35.947Z,100969.50
2022-10-06T09:01:41.585Z,100976.56
2022-10-06T09:04:12.637Z,100980.97
2022-10-06T09:07:06.676Z,100982.97
2022-10-06T09:10:01.832Z,100971.38
2022-10-06T09:13:02.531Z,100977.75
2022-10-06T09:15:36.148Z,101002.53
2022-10-06T09:18:13.322Z,100997.97
2022-10-06T09:20:51.777Z,101014.81
2022-10-06T09:23:38.503Z,101007.91
2022-10-06T09:26:13.196Z,101023.91
2022-10-06T09:28:39.734Z,101039.56
2022-10-06T09:31:39.923Z,101046.97
2022-10-06T09:34:38.032Z,101048.84
2022-10-06T09:37:13.040Z,101050.00
2022-10-06T09:39:49.352Z,101045.97
2022-10-06T09:42:23.051Z,101060.44
2022-10-06T09:45:16.891Z,101055.41
2022-10-06T09:47:45.677Z,101061.09
2022-10-06T09:50:27.581Z,101061.81
2022-10-06T09:53:00.660Z,101057.41
2022-10-06T09:55:33.748Z,101071.41
2022-10-06T09:58:01.473Z,101068.19
2022-10-06T10:00:38.443Z,101072.44
2022-10-06T10:03:07.669Z,101066.84
2022-10-06T10:05:37.872Z,101066.00
2022-10-06T10:08:22.334Z,101065.84
2022-10-06T10:10:50.875Z,101065.16
2022-10-06T10:13:22.327Z,101074.28
2022-10-06T10:15:58.287Z,101072.72
2022-10-06T10:18:28.778Z,101049.69
2022-10-06T10:21:05.162Z,101077.63
2022-10-06T10:23:43.375Z,101104.06
2022-10-06T10:26:32.460Z,101093.31
2022-10-06T10:29:33.093Z,101092.44
2022-10-06T10:32:24.555Z,101102.06
2022-10-06T10:35:06.260Z,101104.91
2022-10-06T10:37:46.454Z,101115.03
2022-10-06T10:40:26.636Z,101112.47
2022-10-06T10:43:08.075Z,101112.66
2022-10-06T10:45:39.578Z,101111.81
2022-10-06T10:48:19.245Z,101123.78
2022-10-06T10:50:54.103Z,101132.69
2022-10-06T10:53:34.764Z,101136.91
2022-10-06T10:56:05.454Z,101146.00
2022-10-06T10:58:43.781Z,101151.25
2022-10-06T11:01:29.414Z,101135.41
2022-10-06T11:03:57.996Z,101152.44
2022-10-06T11:06:33.369Z,101155.75
2022-10-06T11:08:59.750Z,101160.50
2022-10-06T11:11:38.519Z,101156.09
2022-10-06T11:14:16.012Z,101156.25
2022-10-06T11:16:58.374Z,101179.19
2022-10-06T11:19:56.054Z,101185.41
2022-10-06T11:22:36.950Z,101180.38
2022-10-06T11:25:22.447Z,101188.81
2022-10-06T11:27:58.816Z,101187.44
2022-10-06T11:30:26.565Z,101176.28
2022-10-06T11:33:03.659Z,101195.34
2022-10-06T11:35:35.546Z,101181.38
2022-10-06T11:38:15.647Z,101174.47
2022-10-06T11:40:42.218Z,101180.19
2022-10-06T11:43:23.553Z,101185.75
2022-10-06T11:46:11.227Z,101194.00
2022-10-06T11:48:37.837Z,101197.03
2022-10-06T11:51:23.196Z,101191.31
2022-10-06T11:53:50.087Z,101193.53
2022-10-06T11:56:23.478Z,101195.88
2022-10-06T11:58:55.929Z,101190.47
2022-10-06T12:01:31.543Z,101200.06
2022-10-06T12:04:10.291Z,101208.00
2022-10-06T12:06:42.676Z,101214.38
2022-10-06T12:09:28.721Z,101232.06
2022-10-06T12:11:57.394Z,101210.69
2022-10-06T12:17:32.473Z,101226.19
2022-10-06T12:20:17.378Z,101223.16
2022-10-06T12:22:43.698Z,101212.72
2022-10-06T12:25:39.428Z,101231.06
2022-10-06T12:28:27.472Z,101231.91
2022-10-06T12:31:17.325Z,101218.59
2022-10-06T12:33:45.224Z,101240.34
2022-10-06T12:36:20.358Z,101228.69
2022-10-06T12:39:02.432Z,101233.94
2022-10-06T12:41:58.428Z,101235.63
2022-10-06T12:44:34.051Z,101231.91
2022-10-06T12:47:05.402Z,101243.03
2022-10-06T12:49:53.729Z,101233.94
2022-10-06T12:52:44.804Z,101244.22
2022-10-06T12:55:51.607Z,101251.13
2022-10-06T12:58:28.536Z,101257.84
2022-10-06T13:01:02.462Z,101227.53
2022-10-06T13:03:29.487Z,101254.13
2022-10-06T13:06:03.159Z,101274.72
2022-10-06T13:08:35.006Z,101256.84
2022-10-06T13:11:20.947Z,101277.22
2022-10-06T13:13:53.066Z,101273.66
2022-10-06T13:16:23.122Z,101276.03
2022-10-06T13:18:54.967Z,101268.63
2022-10-06T13:21:21.514Z,101253.47
2022-10-06T13:23:48.662Z,101265.78
2022-10-06T13:26:30.910Z,101275.69
2022-10-06T13:28:59.254Z,101275.88
2022-10-06T13:31:36.610Z,101279.22
2022-10-06T13:34:10.387Z,101281.44
2022-10-06T13:36:40.375Z,101281.75
2022-10-06T13:39:14.025Z,101277.72
2022-10-06T13:42:02.422Z,101290.88
2022-10-06T13:44:35.050Z,101291.53
2022-10-06T13:47:07.913Z,101289.53
2022-10-06T13:49:47.356Z,101302.47
2022-10-06T13:52:27.598Z,101307.34
2022-10-06T13:54:57.121Z,101310.91
2022-10-06T13:57:40.183Z,101303.84
2022-10-06T14:00:26.978Z,101304.66
2022-10-06T14:03:09.384Z,101303.84
2022-10-06T14:05:41.883Z,101305.16
2022-10-06T14:08:10.967Z,101305.50
2022-10-06T14:10:40.397Z,101304.50
2022-10-06T14:13:10.069Z,101307.69
2022-10-06T14:15:46.657Z,101315.47
2022-10-06T14:18:26.902Z,101310.41
2022-10-06T14:20:56.484Z,101311.41
2022-10-06T14:23:48.116Z,101318.50
2022-10-06T14:26:16.319Z,101333.13
2022-10-06T14:28:48.863Z,101317.28
2022-10-06T14:31:15.817Z,101315.41
2022-10-06T14:33:42.458Z,101310.84
2022-10-06T14:36:29.259Z,101286.16
2022-10-06T14:38:57.268Z,101290.84
2022-10-06T14:41:27.647Z,101284.63
2022-10-06T14:43:55.402Z,101301.31
2022-10-06T14:46:22.990Z,101306.69
2022-10-06T14:48:49.576Z,101311.56
2022-10-06T14:51:16.784Z,101291.69
2022-10-06T14:53:43.284Z,101297.06
2022-10-06T14:56:13.728Z,101297.75
2022-10-06T14:58:43.702Z,101291.50
2022-10-06T15:01:17.115Z,101295.03
2022-10-06T15:03:50.877Z,101297.06
2022-10-06T15:06:36.012Z,101297.22
2022-10-06T15:09:02.446Z,101307.13
2022-10-06T15:11:29.384Z,101301.63
2022-10-06T15:13:57.223Z,101287.78
2022-10-06T15:16:24.491Z,101296.53
2022-10-06T15:18:51.554Z,101305.31
2022-10-06T15:21:19.266Z,101299.91
2022-10-06T15:23:48.003Z,101302.75
2022-10-06T15:26:33.566Z,101312.72
2022-10-06T15:29:05.677Z,101309.34
2022-10-06T15:31:34.637Z,101322.47
2022-10-06T15:34:03.487Z,101324.31
2022-10-06T15:36:36.215Z,101314.56
2022-10-06T15:39:12.007Z,101322.66
2022-10-06T15:41:40.771Z,101326.50
2022-10-06T15:44:08.519Z,101332.75
2022-10-06T15:46:38.587Z,101329.72
2022-10-06T15:49:06.261Z,101330.88
2022-10-06T15:51:38.251Z,101329.72
2022-10-06T15:54:05.440Z,101325.13
2022-10-06T15:56:32.397Z,101329.38
2022-10-06T15:58:59.458Z,101336.09
2022-10-06T16:01:32.491Z,101328.56
2022-10-06T16:04:02.220Z,101327.81
2022-10-06T16:06:48.962Z,101338.59
2022-10-06T16:09:18.754Z,101335.91
2022-10-06T16:11:49.110Z,101331.00
2022-10-06T16:14:16.359Z,101333.38
2022-10-06T16:16:44.409Z,101344.31
2022-10-06T16:19:11.170Z,101335.41
2022-10-06T16:21:38.111Z,101343.50
2022-10-06T16:24:04.660Z,101341.78
2022-10-06T16:26:31.178Z,101348.19
2022-10-06T16:28:57.652Z,101357.13
2022-10-06T16:31:24.892Z,101351.72
2022-10-06T16:33:51.426Z,101349.88
2022-10-06T16:36:18.494Z,101361.50
2022-10-06T16:38:45.577Z,101356.13
2022-10-06T16:41:12.030Z,101357.13
2022-10-06T16:43:40.812Z,101365.88
2022-10-06T16:46:16.682Z,101362.53
2022-10-06T16:48:45.533Z,101363.19
2022-10-06T16:51:18.116Z,101366.22
2022-10-06T16:53:47.183Z,101375.13
2022-10-06T16:56:25.046Z,101363.72
2022-10-06T16:58:56.114Z,101369.06
2022-10-06T17:01:28.235Z,101369.06
2022-10-06T17:04:08.998Z,101372.97
2022-10-06T17:06:39.142Z,101377.28
2022-10-06T17:09:11.840Z,101382.00
2022-10-06T17:11:38.441Z,101367.66
2022-10-06T17:14:05.317Z,101379.66
2022-10-06T17:16:35.507Z,101388.06
2022-10-06T17:19:03.334Z,101378.81
2022-10-06T17:21:45.604Z,101387.56
2022-10-06T17:24:13.221Z,101389.41
2022-10-06T17:26:41.802Z,101384.69
2022-10-06T17:29:13.698Z,101381.50
2022-10-06T17:31:42.238Z,101384.00
2022-10-06T17:34:12.386Z,101397.31
2022-10-06T17:36:40.553Z,101397.47
2022-10-06T17:39:08.936Z,101404.41
2022-10-06T17:41:38.146Z,101389.25
2022-10-06T17:44:07.773Z,101391.94
2022-10-06T17:46:38.883Z,101401.38
2022-10-06T17:49:07.756Z,101394.63
2022-10-06T17:51:36.230Z,101392.97
2022-10-06T17:54:07.367Z,101401.03
2022-10-06T17:56:37.159Z,101396.66
2022-10-06T17:59:07.371Z,101405.41
2022-10-06T18:01:35.680Z,101401.03
2022-10-06T18:04:04.466Z,101410.78
2022-10-06T18:06:33.673Z,101402.03
2022-10-06T18:09:02.301Z,101409.28
2022-10-06T18:11:33.605Z,101409.97
2022-10-06T18:14:02.193Z,101408.25
2022-10-06T18:16:31.402Z,101400.84
2022-10-06T18:19:02.816Z,101407.41
2022-10-06T18:21:35.172Z,101409.28
2022-10-06T18:24:01.672Z,101400.34
2022-10-06T18:26:28.066Z,101396.78
2022-10-06T18:28:54.504Z,101401.19
2022-10-06T18:31:20.931Z,101401.19
2022-10-06T18:36:34.939Z,101403.03
2022-10-06T18:39:01.392Z,101397.47
2022-10-06T18:41:28.750Z,101402.03
2022-10-06T18:43:55.587Z,101410.25
2022-10-06T18:46:53.940Z,101403.03
2022-10-06T18:49:22.814Z,101403.72
2022-10-06T18:51:58.133Z,101417.34
2022-10-06T18:54:27.583Z,101413.81
2022-10-06T18:56:54.878Z,101420.19
2022-10-06T18:59:31.303Z,101424.63
2022-10-06T19:02:00.346Z,101410.44
2022-10-06T19:04:26.850Z,101408.75
2022-10-06T19:06:54.838Z,101403.19
2022-10-06T19:09:23.494Z,101406.72
2022-10-06T19:11:55.942Z,101409.63
2022-10-06T19:14:26.423Z,101413.13
2022-10-06T19:16:56.579Z,101407.91
2022-10-06T19:19:23.376Z,101403.34
2022-10-06T19:21:57.062Z,101412.59
2022-10-06T19:24:23.425Z,101406.22
2022-10-06T19:26:51.523Z,101405.22
2022-10-06T19:29:24.271Z,101410.59
2022-10-06T19:31:52.963Z,101412.31
2022-10-06T19:34:20.567Z,101414.31
2022-10-06T19:36:53.660Z,101409.75
2022-10-06T19:39:25.858Z,101423.44
2022-10-06T19:42:11.108Z,101408.06
2022-10-06T19:44:42.804Z,101413.44
2022-10-06T19:47:12.587Z,101407.91
2022-10-06T19:49:39.035Z,101406.53
2022-10-06T19:52:08.037Z,101414.31
2022-10-06T19:54:35.731Z,101414.47
2022-10-06T19:57:05.494Z,101410.25
2022-10-06T19:59:32.940Z,101424.22
2022-10-06T20:01:59.381Z,101410.41
2022-10-06T20:04:25.929Z,101425.22
2022-10-06T20:06:52.611Z,101428.75
2022-10-06T20:09:21.393Z,101430.47
2022-10-06T20:11:50.215Z,101427.94
2022-10-06T20:14:22.143Z,101432.97
2022-10-06T20:16:51.009Z,101426.56
2022-10-06T20:19:18.764Z,101425.38
2022-10-06T20:21:47.300Z,101440.38
2022-10-06T20:24:18.534Z,101425.72
2022-10-06T20:26:47.030Z,101433.63
2022-10-06T20:29:15.800Z,101435.16
2022-10-06T20:31:45.067Z,101435.31
2022-10-06T20:34:14.906Z,101438.69
2022-10-06T20:36:41.927Z,101439.88
2022-10-06T20:39:30.253Z,101440.72
2022-10-06T20:41:56.689Z,101428.72
2022-10-06T20:44:23.121Z,101437.31
2022-10-06T20:46:51.288Z,101433.13
2022-10-06T20:49:18.062Z,101437.31
2022-10-06T20:51:49.917Z,101439.00
2022-10-06T20:54:20.563Z,101446.25
2022-10-06T20:56:53.479Z,101444.63
2022-10-06T20:59:24.631Z,101443.72
2022-10-06T21:01:51.797Z,101442.03
2022-10-06T21:04:19.589Z,101441.88
2022-10-06T21:06:47.222Z,101439.34
2022-10-06T21:09:19.432Z,101446.63
2022-10-06T21:11:47.302Z,101444.72
2022-10-06T21:14:14.789Z,101440.16
2022-10-06T21:16:46.585Z,101440.72
2022-10-06T21:19:15.419Z,101439.19
2022-10-06T21:21:43.307Z,101434.78
2022-10-06T21:24:10.138Z,101432.28
2022-10-06T21:26:38.624Z,101430.41
2022-10-06T21:29:05.290Z,101437.66
2022-10-06T21:31:32.162Z,101433.13
2022-10-06T21:33:59.218Z,101425.19
2022-10-06T21:36:32.049Z,101429.72
2022-10-06T21:39:01.018Z,101442.03
2022-10-06T21:41:30.070Z,101429.41
2022-10-06T21:44:10.509Z,101433.94
2022-10-06T21:46:57.361Z,101435.38
2022-10-06T21:49:25.125Z,101427.03
2022-10-06T21:51:54.053Z,101433.78
2022-10-06T21:54:22.129Z,101431.25
2022-10-06T21:56:49.556Z,101428.72
2022-10-06T21:59:16.406Z,101415.91
2022-10-06T22:01:45.299Z,101431.09
2022-10-06T22:04:14.148Z,101424.00
2022-10-06T22:06:40.939Z,101420.81
2022-10-06T22:09:09.520Z,101418.63
2022-10-06T22:11:38.647Z,101415.25
2022-10-06T22:14:08.624Z,101416.63
2022-10-06T22:16:36.576Z,101410.53
2022-10-06T22:19:05.031Z,101407.84
2022-10-06T22:21:36.650Z,101407.22
2022-10-06T22:24:08.773Z,101407.22
2022-10-06T22:26:37.519Z,101399.09
2022-10-06T22:29:06.504Z,101398.09
2022-10-06T22:31:38.646Z,101404.53
2022-10-06T22:34:05.400Z,101398.25
2022-10-06T22:36:33.647Z,101387.63
2022-10-06T22:39:00.731Z,101399.09
2022-10-06T22:41:27.934Z,101389.34
2022-10-06T22:43:57.570Z,101394.56
2022-10-06T22:46:25.952Z,101396.41
2022-10-06T22:48:52.613Z,101387.63
2022-10-06T22:51:19.055Z,101392.88
2022-10-06T22:53:45.513Z,101378.88
2022-10-06T22:56:12.289Z,101383.94
2022-10-06T22:58:41.500Z,101379.56
2022-10-06T23:01:12.708Z,101378.56
2022-10-06T23:03:40.473Z,101372.16
2022-10-06T23:06:08.539Z,101372.16
2022-10-06T23:08:35.528Z,101375.03
2022-10-06T23:11:17.090Z,101369.34
2022-10-06T23:13:46.901Z,101360.69
2022-10-06T23:16:15.876Z,101363.09
2022-10-06T23:18:44.184Z,101359.72
2022-10-06T23:21:21.530Z,101366.13
2022-10-06T23:23:50.725Z,101364.09
2022-10-06T23:26:18.924Z,101362.41
2022-10-06T23:28:46.904Z,101358.88
2022-10-06T23:31:13.425Z,101354.47
2022-10-06T23:33:39.956Z,101356.19
2022-10-06T23:36:09.943Z,101346.94
2022-10-06T23:38:38.888Z,101346.09
2022-10-06T23:41:06.668Z,101346.41
2022-10-06T23:43:33.291Z,101345.56
2022-10-06T23:46:02.552Z,101332.09
2022-10-06T23:48:29.304Z,101345.56
2022-10-06T23:50:56.903Z,101349.78
2022-10-06T23:53:23.383Z,101342.88
2022-10-06T23:55:49.850Z,101341.16
2022-10-06T23:58:16.632Z,101334.09
